Time;durP1;ratioP1;P1;durP2;ratioP2;P2;SDS_P1;SDS_P2;PMS_P1;PMS_P2;Temp;Humidity;BMP_temperature;BMP_pressure;BME280_temperature;BME280_humidity;BME280_pressure;Samples;Min_cycle;Max_cycle;Signal;HPM_P1;HPM_P2
2024/01/21 00:02:05;;;;;;;14.55;6.32;;;1.50;99.90;;;;;;6149129;23;20025;-94
2024/01/21 00:04:32;;;;;;;11.63;5.88;;;-0.20;99.90;;;;;;6148774;23;20061;-95
2024/01/21 00:06:58;;;;;;;10.20;5.57;;;0.00;99.90;;;;;;6148964;23;20018;-95
2024/01/21 00:09:26;;;;;;;11.93;5.97;;;0.20;99.90;;;;;;6149021;23;20013;-95
2024/01/21 00:11:53;;;;;;;11.93;6.03;;;1.30;99.90;;;;;;6148960;23;20009;-95
2024/01/21 00:14:20;;;;;;;12.48;5.88;;;1.00;99.90;;;;;;6148887;23;20017;-95
2024/01/21 00:16:46;;;;;;;13.27;5.63;;;1.10;99.90;;;;;;6148915;23;20624;-95
2024/01/21 00:19:13;;;;;;;10.23;5.40;;;1.60;99.90;;;;;;6148797;23;20014;-95
2024/01/21 00:21:40;;;;;;;10.38;5.32;;;1.30;99.90;;;;;;6148949;23;20010;-94
2024/01/21 00:24:06;;;;;;;15.88;6.40;;;0.80;99.90;;;;;;6148845;23;20021;-95
2024/01/21 00:26:33;;;;;;;12.02;6.30;;;0.00;99.90;;;;;;6148497;23;20088;-94
2024/01/21 00:29:00;;;;;;;11.23;5.80;;;1.00;99.90;;;;;;6149058;23;20021;-95
2024/01/21 00:31:27;;;;;;;11.27;6.13;;;1.40;99.90;;;;;;6148849;23;20052;-95
2024/01/21 00:33:54;;;;;;;9.88;5.55;;;0.90;99.90;;;;;;6148603;23;20441;-93
2024/01/21 00:36:21;;;;;;;11.95;6.25;;;-0.30;99.90;;;;;;6148915;23;20572;-95
2024/01/21 00:38:47;;;;;;;13.15;6.35;;;1.00;99.90;;;;;;6149037;23;20014;-95
2024/01/21 00:41:15;;;;;;;12.13;5.72;;;0.90;99.90;;;;;;6148732;23;20060;-95
2024/01/21 00:43:42;;;;;;;13.82;6.18;;;0.00;99.90;;;;;;6173038;23;20096;-95
2024/01/21 00:46:09;;;;;;;13.55;6.28;;;0.10;99.90;;;;;;6148645;23;20088;-95
2024/01/21 00:48:36;;;;;;;12.75;6.38;;;1.00;99.90;;;;;;6150808;23;20015;-95
2024/01/21 00:51:03;;;;;;;16.08;5.95;;;;;;;;;;6150514;23;20051;-95
2024/01/21 00:53:29;;;;;;;14.18;6.25;;;-0.20;99.90;;;;;;6150716;23;20499;-94
2024/01/21 00:55:56;;;;;;;13.32;6.78;;;1.40;99.90;;;;;;6150626;23;20017;-95
2024/01/21 00:58:23;;;;;;;13.32;6.85;;;0.90;99.90;;;;;;6150705;23;20013;-95
2024/01/21 01:00:49;;;;;;;14.05;6.00;;;1.10;99.90;;;;;;6150937;23;20071;-95
2024/01/21 01:03:16;;;;;;;14.75;6.85;;;0.60;99.90;;;;;;6150711;23;20017;-95
2024/01/21 01:05:42;;;;;;;13.52;5.90;;;-0.30;99.90;;;;;;6150307;23;20025;-94
2024/01/21 01:08:09;;;;;;;11.93;6.03;;;0.20;99.90;;;;;;6150265;23;20045;-95
2024/01/21 01:10:36;;;;;;;14.10;5.90;;;1.10;99.90;;;;;;6150331;23;20013;-95
2024/01/21 01:13:03;;;;;;;12.85;5.30;;;0.10;99.90;;;;;;6150426;23;20041;-95
2024/01/21 01:15:29;;;;;;;13.73;6.22;;;-0.40;99.90;;;;;;6149985;23;20100;-96
2024/01/21 01:17:56;;;;;;;10.57;4.97;;;-0.70;99.90;;;;;;6150234;23;20021;-96
2024/01/21 01:20:22;;;;;;;14.80;5.55;;;-0.30;99.90;;;;;;6150627;23;20025;-95
2024/01/21 01:22:49;;;;;;;13.40;5.30;;;0.80;99.90;;;;;;6150340;23;20013;-96
2024/01/21 01:25:16;;;;;;;9.93;5.15;;;-0.40;99.90;;;;;;6149834;23;20074;-96
2024/01/21 01:27:42;;;;;;;11.90;5.25;;;1.00;99.90;;;;;;6150016;23;20010;-96
2024/01/21 01:30:10;;;;;;;10.93;5.10;;;0.70;99.90;;;;;;6150359;23;20093;-96
2024/01/21 01:32:36;;;;;;;10.43;4.97;;;-0.20;99.90;;;;;;6150063;23;20068;-96
2024/01/21 01:35:05;;;;;;;10.65;5.47;;;1.50;99.90;;;;;;6150093;23;20013;-96
2024/01/21 01:37:31;;;;;;;10.88;5.00;;;-0.20;99.90;;;;;;6150300;23;20022;-96
2024/01/21 01:39:58;;;;;;;13.95;5.10;;;0.20;99.90;;;;;;6150208;23;20045;-96
2024/01/21 01:42:25;;;;;;;10.93;4.95;;;0.50;99.90;;;;;;6150531;23;20013;-96
2024/01/21 01:44:51;;;;;;;10.52;4.68;;;1.50;99.90;;;;;;6150105;23;20013;-96
2024/01/21 01:47:18;;;;;;;10.18;4.68;;;1.00;99.90;;;;;;6150122;23;20384;-95
2024/01/21 01:49:45;;;;;;;11.93;4.75;;;1.40;99.90;;;;;;6150146;23;20009;-95
2024/01/21 01:52:15;;;;;;;9.02;4.78;;;1.40;99.90;;;;;;6150390;23;20009;-96
2024/01/21 01:54:44;;;;;;;12.02;4.70;;;0.50;99.90;;;;;;6150052;23;20067;-96
2024/01/21 01:57:15;;;;;;;11.00;4.50;;;1.20;99.90;;;;;;6149986;23;20028;-96
2024/01/21 01:59:42;;;;;;;10.10;4.63;;;0.90;99.90;;;;;;6149327;23;20017;-96
2024/01/21 02:02:10;;;;;;;9.10;4.05;;;0.90;99.90;;;;;;6149845;23;20017;-96
2024/01/21 02:04:36;;;;;;;10.00;4.43;;;1.40;99.90;;;;;;6149685;23;20014;-96
2024/01/21 02:07:03;;;;;;;8.27;4.10;;;0.70;99.90;;;;;;6149970;23;20404;-96
2024/01/21 02:09:30;;;;;;;9.18;4.35;;;1.00;99.90;;;;;;6149886;23;20461;-96
2024/01/21 02:11:57;;;;;;;11.68;4.60;;;1.00;99.90;;;;;;6149855;23;20014;-96
2024/01/21 02:14:24;;;;;;;8.32;3.88;;;1.10;99.90;;;;;;6149701;23;20021;-96
2024/01/21 02:16:51;;;;;;;7.78;4.03;;;-0.20;99.90;;;;;;6149774;23;20024;-96
2024/01/21 02:19:26;;;;;;;8.65;3.83;;;0.90;99.90;;;;;;6149887;23;20052;-96
2024/01/21 02:21:53;;;;;;;7.50;4.13;;;-0.10;99.90;;;;;;6150089;23;20013;-96
2024/01/21 02:24:20;;;;;;;8.32;4.10;;;0.40;99.90;;;;;;6149657;23;20013;-96
2024/01/21 02:26:48;;;;;;;8.40;4.20;;;0.00;99.90;;;;;;6149680;23;20459;-96
2024/01/21 02:29:14;;;;;;;7.10;3.72;;;1.00;99.90;;;;;;6149426;23;20010;-96
2024/01/21 02:31:41;;;;;;;7.95;4.00;;;1.40;99.90;;;;;;6149910;23;20141;-96
2024/01/21 02:34:08;;;;;;;7.38;3.60;;;1.50;99.90;;;;;;6148864;23;20310;-96
2024/01/21 02:36:35;;;;;;;9.75;3.25;;;1.10;99.90;;;;;;6150035;23;20006;-96
2024/01/21 02:39:01;;;;;;;7.20;3.38;;;1.20;99.90;;;;;;6149604;23;20056;-96
2024/01/21 02:41:28;;;;;;;8.77;4.07;;;1.20;99.90;;;;;;6149622;23;20014;-96
2024/01/21 02:43:55;;;;;;;6.10;2.95;;;1.50;99.90;;;;;;6149499;23;20013;-96
2024/01/21 02:46:22;;;;;;;7.28;2.67;;;0.30;99.90;;;;;;6149226;23;20101;-96
2024/01/21 02:48:48;;;;;;;6.82;3.40;;;0.90;99.90;;;;;;6149299;23;20013;-95
2024/01/21 02:51:15;;;;;;;7.80;3.60;;;1.50;99.90;;;;;;6149454;23;20021;-96
2024/01/21 02:53:42;;;;;;;6.72;3.20;;;0.20;99.90;;;;;;6149217;23;20055;-96
2024/01/21 02:56:08;;;;;;;7.82;3.22;;;0.90;99.90;;;;;;6149348;23;20619;-96
2024/01/21 02:58:35;;;;;;;7.90;3.00;;;0.00;99.90;;;;;;6149480;23;20013;-96
2024/01/21 03:01:02;;;;;;;6.30;2.83;;;1.60;99.90;;;;;;6149601;23;20014;-96
2024/01/21 03:03:29;;;;;;;9.38;3.22;;;0.00;99.90;;;;;;6149227;23;20014;-96
2024/01/21 03:05:55;;;;;;;6.57;3.00;;;1.20;99.90;;;;;;6149252;23;20018;-96
2024/01/21 03:08:22;;;;;;;9.20;3.22;;;1.30;99.90;;;;;;6149659;23;20096;-96
2024/01/21 03:10:50;;;;;;;7.38;3.00;;;1.10;99.90;;;;;;6149740;23;20018;-96
2024/01/21 03:13:17;;;;;;;6.93;3.10;;;1.30;99.90;;;;;;6149133;23;20013;-95
2024/01/21 03:15:43;;;;;;;5.32;2.70;;;1.60;99.90;;;;;;6149412;23;20018;-96
2024/01/21 03:18:10;;;;;;;6.00;2.72;;;0.70;99.90;;;;;;6148892;23;20013;-95
2024/01/21 03:20:37;;;;;;;7.13;2.90;;;1.20;99.90;;;;;;6149402;23;20520;-96
2024/01/21 03:23:03;;;;;;;6.53;2.83;;;1.70;99.90;;;;;;6149089;23;20056;-96
2024/01/21 03:25:30;;;;;;;8.80;2.83;;;1.20;99.90;;;;;;6149136;23;20024;-96
2024/01/21 03:27:57;;;;;;;6.55;2.60;;;1.10;99.90;;;;;;6149224;23;20013;-96
2024/01/21 03:30:23;;;;;;;6.05;2.55;;;1.00;99.90;;;;;;6149272;23;20013;-96
2024/01/21 03:32:50;;;;;;;6.25;2.97;;;1.10;99.90;;;;;;6149327;23;20018;-96
2024/01/21 03:35:17;;;;;;;6.10;2.88;;;0.90;99.90;;;;;;6149277;23;20105;-96
2024/01/21 03:37:43;;;;;;;7.63;2.97;;;1.60;99.90;;;;;;6149267;23;20017;-96
2024/01/21 03:40:10;;;;;;;6.13;2.65;;;1.90;99.90;;;;;;6149043;23;20013;-96
2024/01/21 03:42:37;;;;;;;4.63;2.28;;;0.30;99.90;;;;;;6148892;23;20013;-96
2024/01/21 03:45:04;;;;;;;7.00;2.47;;;0.20;99.90;;;;;;6149114;23;20348;-95
2024/01/21 03:47:31;;;;;;;6.57;2.80;;;0.30;99.90;;;;;;6148767;23;20025;-96
2024/01/21 03:49:58;;;;;;;5.85;2.47;;;1.80;99.90;;;;;;6149504;23;20005;-96
2024/01/21 03:52:25;;;;;;;5.63;2.40;;;1.70;99.90;;;;;;6148858;23;20010;-96
2024/01/21 03:54:53;;;;;;;6.30;2.42;;;1.80;99.90;;;;;;6149024;23;20014;-96
2024/01/21 03:57:19;;;;;;;6.97;2.85;;;0.40;99.90;;;;;;6148977;23;20045;-95
2024/01/21 03:59:47;;;;;;;4.25;2.20;;;0.60;99.90;;;;;;6149006;23;20013;-96
2024/01/21 04:02:14;;;;;;;5.22;2.35;;;1.10;99.90;;;;;;6148713;23;20021;-95
2024/01/21 04:04:41;;;;;;;5.70;2.30;;;;;;;;;;6148922;23;20041;-96
2024/01/21 04:07:07;;;;;;;4.93;2.47;;;0.30;99.90;;;;;;6149160;23;20476;-96
2024/01/21 04:09:34;;;;;;;5.75;2.08;;;1.80;99.90;;;;;;6149155;23;20089;-95
2024/01/21 04:12:01;;;;;;;5.38;2.20;;;0.00;99.90;;;;;;6149103;23;20014;-96
2024/01/21 04:14:27;;;;;;;4.28;2.00;;;2.00;99.90;;;;;;6149173;23;20471;-96
2024/01/21 04:16:54;;;;;;;3.78;1.90;;;0.80;99.90;;;;;;6148976;23;20041;-96
2024/01/21 04:19:21;;;;;;;4.68;1.77;;;0.60;99.90;;;;;;6148940;23;20022;-96
2024/01/21 04:21:47;;;;;;;4.30;2.00;;;1.90;99.90;;;;;;6149446;23;20029;-96
2024/01/21 04:24:15;;;;;;;3.60;1.90;;;;;;;;;;6150874;23;20014;-96
2024/01/21 04:26:42;;;;;;;6.18;2.42;;;0.40;99.90;;;;;;6151123;23;20021;-96
2024/01/21 04:29:08;;;;;;;5.47;1.70;;;1.60;99.90;;;;;;6151136;23;20013;-96
2024/01/21 04:31:35;;;;;;;3.38;1.63;;;2.00;99.90;;;;;;6150934;23;20009;-96
2024/01/21 04:34:02;;;;;;;3.35;1.67;;;0.40;99.90;;;;;;6150537;23;20027;-95
2024/01/21 04:36:28;;;;;;;4.00;1.73;;;1.00;99.90;;;;;;6150813;23;20322;-96
2024/01/21 04:38:55;;;;;;;4.15;1.70;;;2.10;99.90;;;;;;6150813;23;20017;-96
2024/01/21 04:41:22;;;;;;;4.03;1.83;;;2.00;99.90;;;;;;6150714;23;20017;-96
2024/01/21 04:43:48;;;;;;;4.35;1.75;;;1.70;99.90;;;;;;6151187;23;20013;-96
2024/01/21 04:46:15;;;;;;;3.25;1.38;;;1.80;99.90;;;;;;6150661;23;20025;-96
2024/01/21 04:48:42;;;;;;;3.05;1.40;;;2.20;99.90;;;;;;6151226;23;20036;-95
2024/01/21 04:51:10;;;;;;;3.85;1.70;;;0.50;99.90;;;;;;6150775;23;20049;-96
2024/01/21 04:53:40;;;;;;;3.55;1.52;;;1.70;99.90;;;;;;6150674;23;20014;-96
2024/01/21 04:56:06;;;;;;;4.18;1.30;;;1.90;99.90;;;;;;6151238;23;20013;-96
2024/01/21 04:58:33;;;;;;;4.55;1.67;;;2.20;99.90;;;;;;6151191;23;20068;-96
2024/01/21 05:01:00;;;;;;;4.40;1.60;;;0.60;99.90;;;;;;6150688;23;20009;-96
2024/01/21 05:03:26;;;;;;;3.03;1.30;;;0.70;99.90;;;;;;6150783;23;20514;-96
2024/01/21 05:05:53;;;;;;;4.90;1.70;;;2.10;99.90;;;;;;6150000;23;20052;-96
2024/01/21 05:08:20;;;;;;;2.90;1.33;;;1.50;99.90;;;;;;6150342;23;20014;-95
2024/01/21 05:10:46;;;;;;;3.58;1.52;;;0.40;99.90;;;;;;6150365;23;20348;-96
2024/01/21 05:13:13;;;;;;;3.30;1.33;;;0.40;99.90;;;;;;6150828;23;20020;-96
2024/01/21 05:15:40;;;;;;;3.88;1.50;;;2.20;99.90;;;;;;6150767;23;20018;-96
2024/01/21 05:18:06;;;;;;;3.50;1.60;;;1.90;99.90;;;;;;6150644;23;20009;-96
2024/01/21 05:20:33;;;;;;;3.08;1.45;;;0.60;99.90;;;;;;6150229;23;20340;-96
2024/01/21 05:22:59;;;;;;;2.88;1.33;;;1.60;99.90;;;;;;6150277;23;20048;-96
2024/01/21 05:25:26;;;;;;;4.80;1.50;;;1.90;99.90;;;;;;6150439;23;20010;-96
2024/01/21 05:27:53;;;;;;;3.50;1.50;;;1.80;99.90;;;;;;6150354;23;20013;-96
2024/01/21 05:30:19;;;;;;;3.45;1.40;;;2.00;99.90;;;;;;6150388;23;20093;-96
2024/01/21 05:32:50;;;;;;;2.83;1.30;;;;;;;;;;6150112;23;20088;-96
2024/01/21 05:35:18;;;;;;;2.85;1.20;;;0.70;99.90;;;;;;6150376;23;20045;-96
2024/01/21 05:37:45;;;;;;;5.53;1.52;;;1.80;99.90;;;;;;6150360;23;20539;-96
2024/01/21 05:40:12;;;;;;;2.88;1.27;;;1.70;99.90;;;;;;6150124;23;20017;-96
2024/01/21 05:42:38;;;;;;;3.65;1.52;;;0.70;99.90;;;;;;6150024;23;20111;-96
2024/01/21 05:45:06;;;;;;;6.13;1.30;;;0.70;99.90;;;;;;6150124;23;20021;-96
2024/01/21 05:47:33;;;;;;;4.15;1.30;;;;;;;;;;6149865;23;20441;-96
2024/01/21 05:50:00;;;;;;;2.70;1.33;;;0.70;99.90;;;;;;6150418;23;20005;-96
2024/01/21 05:52:26;;;;;;;3.80;1.60;;;-0.50;99.90;;;;;;6150327;23;20011;-96
2024/01/21 05:54:53;;;;;;;4.43;1.75;;;1.00;99.90;;;;;;6150277;23;20321;-96
2024/01/21 05:57:20;;;;;;;2.75;1.30;;;1.90;99.90;;;;;;6150280;23;20017;-96
2024/01/21 05:59:46;;;;;;;3.20;1.55;;;1.80;99.90;;;;;;6150306;23;20530;-96
2024/01/21 06:02:14;;;;;;;2.80;1.30;;;2.00;99.90;;;;;;6150035;23;20016;-96
2024/01/21 06:04:40;;;;;;;3.88;1.45;;;2.20;99.90;;;;;;6149590;23;20540;-96
2024/01/21 06:07:07;;;;;;;4.53;1.40;;;1.40;99.90;;;;;;6150006;23;20049;-96
2024/01/21 06:09:34;;;;;;;3.35;1.55;;;1.70;99.90;;;;;;6149793;23;20016;-96
2024/01/21 06:12:01;;;;;;;3.40;1.50;;;1.00;99.90;;;;;;6149865;23;20017;-96
2024/01/21 06:14:27;;;;;;;3.90;1.50;;;2.20;99.90;;;;;;6149871;23;20030;-96
2024/01/21 06:16:54;;;;;;;3.20;1.63;;;2.10;99.90;;;;;;6149868;23;20018;-96
2024/01/21 06:19:21;;;;;;;4.22;1.63;;;2.00;99.90;;;;;;6150045;23;20052;-96
2024/01/21 06:21:48;;;;;;;3.05;1.40;;;2.10;99.90;;;;;;6149920;23;20006;-96
2024/01/21 06:24:14;;;;;;;3.40;1.30;;;1.90;99.90;;;;;;6149598;23;20017;-96
2024/01/21 06:26:41;;;;;;;4.13;1.60;;;2.10;99.90;;;;;;6149457;23;20173;-96
2024/01/21 06:29:08;;;;;;;4.53;1.80;;;1.40;99.90;;;;;;6149654;23;20409;-96
2024/01/21 06:31:35;;;;;;;4.25;1.77;;;1.30;99.90;;;;;;6149642;23;20048;-96
2024/01/21 06:34:01;;;;;;;3.63;1.50;;;1.30;99.90;;;;;;6149894;23;20318;-96
2024/01/21 06:36:29;;;;;;;3.70;1.67;;;;;;;;;;6149637;23;20096;-96
2024/01/21 06:38:55;;;;;;;3.92;1.80;;;1.10;99.90;;;;;;6149566;23;20025;-96
2024/01/21 06:41:22;;;;;;;3.28;1.60;;;2.60;99.90;;;;;;6174107;23;20009;-96
2024/01/21 06:43:49;;;;;;;5.38;1.67;;;1.20;99.90;;;;;;6149564;23;20017;-96
2024/01/21 06:46:16;;;;;;;4.07;1.67;;;2.70;99.90;;;;;;6149177;23;20017;-96
2024/01/21 06:48:42;;;;;;;3.90;1.58;;;3.00;99.90;;;;;;6149545;23;20010;-95
2024/01/21 06:51:21;;;;;;;3.55;1.50;;;2.90;99.90;;;;;;6149575;23;20013;-95
2024/01/21 06:53:48;;;;;;;5.07;1.80;;;2.90;99.90;;;;;;6149381;23;20014;-96
2024/01/21 06:56:14;;;;;;;3.25;1.65;;;2.90;99.90;;;;;;6149668;23;20344;-95
2024/01/21 06:58:41;;;;;;;4.00;1.67;;;2.60;99.90;;;;;;6149797;23;20081;-96
2024/01/21 07:01:07;;;;;;;5.00;2.15;;;3.00;99.90;;;;;;6149621;23;20083;-96
2024/01/21 07:03:34;;;;;;;4.93;2.20;;;2.30;99.90;;;;;;6149505;23;20013;-96
2024/01/21 07:06:01;;;;;;;5.95;2.00;;;2.90;99.90;;;;;;6149839;23;20507;-96
2024/01/21 07:08:27;;;;;;;6.68;2.47;;;1.60;99.90;;;;;;6149477;23;20017;-96
2024/01/21 07:10:54;;;;;;;5.18;2.30;;;3.20;99.90;;;;;;6149638;23;20052;-96
2024/01/21 07:13:21;;;;;;;7.00;2.10;;;2.80;99.90;;;;;;6148937;23;20025;-95
2024/01/21 07:15:47;;;;;;;7.30;2.40;;;2.80;99.90;;;;;;6149220;23;20018;-95
2024/01/21 07:18:14;;;;;;;5.93;2.10;;;2.50;99.90;;;;;;6149163;23;20017;-95
2024/01/21 07:20:40;;;;;;;5.00;2.15;;;3.10;99.90;;;;;;6149366;23;20018;-96
2024/01/21 07:23:07;;;;;;;6.28;2.65;;;1.70;99.90;;;;;;6149452;23;20017;-96
2024/01/21 07:25:34;;;;;;;6.18;2.70;;;2.90;99.90;;;;;;6148999;23;20014;-96
2024/01/21 07:28:00;;;;;;;7.85;2.63;;;1.80;99.90;;;;;;6149381;23;20032;-96
2024/01/21 07:30:27;;;;;;;6.40;2.88;;;3.10;99.90;;;;;;6149075;23;20017;-96
2024/01/21 07:32:54;;;;;;;6.78;2.42;;;3.20;99.90;;;;;;6149062;23;20013;-96
2024/01/21 07:35:21;;;;;;;9.13;3.38;;;2.90;99.90;;;;;;6148866;23;20052;-95
2024/01/21 07:37:47;;;;;;;6.57;3.15;;;2.60;99.90;;;;;;6148557;23;20040;-96
2024/01/21 07:40:14;;;;;;;6.40;2.90;;;2.60;99.90;;;;;;6148657;23;20020;-96
2024/01/21 07:42:41;;;;;;;6.80;3.40;;;1.70;99.90;;;;;;6148737;23;20040;-95
2024/01/21 07:45:08;;;;;;;6.65;3.20;;;3.20;99.90;;;;;;6149087;23;20056;-96
2024/01/21 07:47:34;;;;;;;9.75;3.45;;;1.70;99.90;;;;;;6148324;23;20044;-96
2024/01/21 07:50:01;;;;;;;6.40;2.90;;;3.00;99.90;;;;;;6148646;23;20021;-96
2024/01/21 07:52:28;;;;;;;6.10;2.90;;;2.40;99.90;;;;;;6148729;23;20021;-96
2024/01/21 07:54:54;;;;;;;12.07;4.47;;;2.90;99.90;;;;;;6148987;23;20092;-94
2024/01/21 07:57:21;;;;;;;8.13;3.92;;;2.30;99.90;;;;;;6149800;23;20014;-93
2024/01/21 07:59:48;;;;;;;8.00;3.70;;;1.60;99.90;;;;;;6150634;23;20017;-94
2024/01/21 08:02:14;;;;;;;7.75;3.45;;;2.20;99.90;;;;;;6174879;23;20049;-94
2024/01/21 08:04:41;;;;;;;9.93;3.85;;;1.50;99.90;;;;;;6150361;23;20100;-94
2024/01/21 08:07:08;;;;;;;6.28;3.63;;;1.50;99.90;;;;;;6150645;23;20010;-95
2024/01/21 08:09:35;;;;;;;8.02;4.05;;;1.50;99.90;;;;;;6150872;23;20020;-96
2024/01/21 08:12:01;;;;;;;11.13;4.07;;;2.80;99.90;;;;;;6150967;23;20009;-96
2024/01/21 08:14:30;;;;;;;7.43;3.45;;;1.50;99.90;;;;;;6150653;23;20326;-96
2024/01/21 08:16:56;;;;;;;12.00;3.95;;;2.30;99.90;;;;;;6150588;23;20013;-96
2024/01/21 08:19:23;;;;;;;6.75;3.63;;;3.20;99.90;;;;;;6150718;23;20068;-96
2024/01/21 08:21:50;;;;;;;7.47;3.90;;;3.00;99.90;;;;;;6150804;23;20018;-96
2024/01/21 08:24:16;;;;;;;8.50;3.45;;;3.10;99.90;;;;;;6150450;23;20024;-96
2024/01/21 08:26:43;;;;;;;8.68;4.35;;;1.50;99.90;;;;;;6150557;23;20014;-96
2024/01/21 08:29:10;;;;;;;9.63;4.05;;;1.50;99.90;;;;;;6150576;23;20017;-96
2024/01/21 08:31:43;;;;;;;9.98;4.03;;;2.60;99.90;;;;;;6149926;23;20068;-93
2024/01/21 08:34:10;;;;;;;7.28;4.05;;;2.10;99.90;;;;;;6150065;23;20009;-95
2024/01/21 08:36:37;;;;;;;7.97;4.07;;;1.50;99.90;;;;;;6150567;23;20511;-95
2024/01/21 08:39:05;;;;;;;9.55;3.83;;;1.50;99.90;;;;;;6151115;23;20013;-94
2024/01/21 08:41:34;;;;;;;10.25;4.07;;;2.20;99.90;;;;;;6150096;23;20013;-94
2024/01/21 08:44:02;;;;;;;10.43;4.22;;;0.50;99.90;;;;;;6150215;23;20027;-94
2024/01/21 08:46:29;;;;;;;7.35;3.83;;;3.10;99.90;;;;;;6150270;23;20163;-93
2024/01/21 08:48:56;;;;;;;8.77;4.43;;;1.60;99.90;;;;;;6174804;23;20041;-93
2024/01/21 08:51:23;;;;;;;8.95;4.07;;;3.20;99.90;;;;;;6150412;23;20010;-93
2024/01/21 08:53:56;;;;;;;8.68;4.07;;;1.90;99.90;;;;;;6150381;23;20018;-94
2024/01/21 08:56:26;;;;;;;9.90;3.63;;;2.30;99.90;;;;;;6150268;23;20348;-93
2024/01/21 08:58:53;;;;;;;7.85;3.67;;;1.70;99.90;;;;;;6150401;23;20013;-95
2024/01/21 09:01:21;;;;;;;8.80;4.05;;;2.90;99.90;;;;;;6149011;23;20017;-92
2024/01/21 09:03:47;;;;;;;6.93;3.58;;;1.60;99.90;;;;;;6150202;23;20052;-91
2024/01/21 09:06:14;;;;;;;11.85;4.95;;;2.60;99.90;;;;;;6150228;23;20352;-92
2024/01/21 09:08:41;;;;;;;10.88;4.95;;;2.70;99.90;;;;;;6149746;23;20017;-92
2024/01/21 09:11:07;;;;;;;9.57;4.95;;;2.50;99.90;;;;;;6149946;23;20009;-92
2024/01/21 09:13:34;;;;;;;11.77;4.65;;;2.80;99.90;;;;;;6149573;23;20444;-93
2024/01/21 09:16:01;;;;;;;9.55;4.53;;;3.00;99.90;;;;;;6149718;23;20448;-93
2024/01/21 09:18:27;;;;;;;8.10;4.20;;;3.00;99.90;;;;;;6149727;23;20017;-92
2024/01/21 09:20:54;;;;;;;11.00;4.72;;;3.10;99.90;;;;;;6174473;23;20400;-92
2024/01/21 09:23:21;;;;;;;10.00;4.78;;;3.20;99.90;;;;;;6150083;23;20014;-91
2024/01/21 09:25:47;;;;;;;9.18;4.40;;;1.70;99.90;;;;;;6149918;23;20388;-91
2024/01/21 09:28:14;;;;;;;9.48;4.40;;;2.50;99.90;;;;;;6150094;23;20016;-93
2024/01/21 09:30:41;;;;;;;8.57;4.45;;;2.90;99.90;;;;;;6150661;23;20040;-93
2024/01/21 09:33:07;;;;;;;9.40;4.90;;;3.30;99.90;;;;;;6149909;23;20064;-92
2024/01/21 09:35:34;;;;;;;10.95;4.40;;;;;;;;;;6148997;23;20018;-92
2024/01/21 09:38:01;;;;;;;10.55;4.60;;;1.90;99.90;;;;;;6150009;23;20021;-93
2024/01/21 09:40:28;;;;;;;10.18;4.45;;;1.80;99.90;;;;;;6149716;23;20417;-92
2024/01/21 09:42:55;;;;;;;10.10;4.05;;;3.10;99.90;;;;;;6149474;23;20401;-92
2024/01/21 09:45:24;;;;;;;7.47;4.00;;;2.00;99.90;;;;;;6149660;23;20041;-92
2024/01/21 09:47:54;;;;;;;9.13;4.47;;;3.40;99.90;;;;;;6149980;23;20020;-92
2024/01/21 09:50:21;;;;;;;7.78;3.92;;;3.50;99.90;;;;;;6150437;23;20058;-92
2024/01/21 09:52:48;;;;;;;8.50;4.30;;;;;;;;;;6150337;23;20459;-93
2024/01/21 09:55:15;;;;;;;8.68;4.78;;;2.10;99.90;;;;;;6150033;23;20024;-92
2024/01/21 09:57:42;;;;;;;7.72;4.22;;;3.40;99.90;;;;;;6149667;23;20009;-91
2024/01/21 10:00:13;;;;;;;8.00;4.10;;;3.60;99.90;;;;;;6174299;23;20024;-94
2024/01/21 10:02:45;;;;;;;9.13;4.40;;;2.30;99.90;;;;;;6148821;23;20085;-94
2024/01/21 10:05:13;;;;;;;9.27;4.32;;;;;;;;;;6149366;23;20017;-93
2024/01/21 10:07:40;;;;;;;8.60;3.88;;;2.30;99.90;;;;;;6149661;23;20417;-92
2024/01/21 10:10:07;;;;;;;8.63;4.45;;;3.80;99.90;;;;;;6149409;23;20052;-93
2024/01/21 10:12:34;;;;;;;8.95;4.45;;;2.20;99.90;;;;;;6149962;23;20084;-92
2024/01/21 10:15:01;;;;;;;9.57;4.55;;;3.70;99.90;;;;;;6149334;23;20057;-92
2024/01/21 10:17:27;;;;;;;8.52;4.47;;;2.20;99.90;;;;;;6149719;23;20022;-95
2024/01/21 10:19:54;;;;;;;9.35;4.40;;;2.70;99.90;;;;;;6149133;23;20018;-93
2024/01/21 10:22:24;;;;;;;9.07;4.43;;;3.50;99.90;;;;;;6149643;23;20021;-92
2024/01/21 10:24:51;;;;;;;8.63;4.10;;;2.40;99.90;;;;;;6149254;23;20091;-92
2024/01/21 10:27:18;;;;;;;10.25;4.45;;;4.00;99.90;;;;;;6150030;23;20122;-92
2024/01/21 10:29:46;;;;;;;9.73;4.55;;;3.50;99.90;;;;;;6149051;23;20014;-92
2024/01/21 10:32:14;;;;;;;9.10;4.78;;;2.40;99.90;;;;;;6149267;23;20096;-93
2024/01/21 10:34:45;;;;;;;8.07;4.35;;;3.20;99.90;;;;;;6149462;23;20018;-91
2024/01/21 10:37:16;;;;;;;8.30;4.13;;;3.90;99.90;;;;;;6149058;23;20005;-92
2024/01/21 10:39:49;;;;;;;9.15;4.43;;;2.50;99.90;;;;;;6148710;23;20092;-90
2024/01/21 10:42:16;;;;;;;9.50;3.85;;;3.70;99.90;;;;;;6149233;23;20499;-90
2024/01/21 10:44:46;;;;;;;8.90;4.80;;;3.60;99.90;;;;;;6148970;23;20049;-91
2024/01/21 10:47:14;;;;;;;11.65;4.85;;;2.90;99.90;;;;;;6148762;23;20515;-92
2024/01/21 10:49:42;;;;;;;9.98;4.40;;;3.30;99.90;;;;;;6148773;23;20044;-92
2024/01/21 10:52:10;;;;;;;9.85;4.47;;;2.60;99.90;;;;;;6148868;23;20148;-91
2024/01/21 10:54:37;;;;;;;9.00;4.40;;;2.70;99.90;;;;;;6149441;23;20013;-91
2024/01/21 10:57:04;;;;;;;9.40;4.15;;;4.00;99.90;;;;;;6149150;23;20013;-92
2024/01/21 10:59:31;;;;;;;9.60;4.25;;;2.90;99.90;;;;;;6149252;23;20349;-93
2024/01/21 11:01:58;;;;;;;11.63;4.90;;;3.80;99.90;;;;;;6148923;23;20006;-91
2024/01/21 11:04:26;;;;;;;10.32;5.25;;;4.30;99.90;;;;;;6148945;23;20009;-96
2024/01/21 11:06:53;;;;;;;8.80;4.35;;;;;;;;;;6148821;23;20028;-94
2024/01/21 11:09:23;;;;;;;10.25;4.80;;;2.90;99.90;;;;;;6149054;23;20096;-95
2024/01/21 11:11:51;;;;;;;10.20;5.07;;;2.90;99.90;;;;;;6149279;23;20024;-94
2024/01/21 11:14:35;;;;;;;8.63;4.75;;;3.00;99.90;;;;;;6149098;23;20116;-92
2024/01/21 11:17:03;;;;;;;12.02;5.05;;;2.90;99.90;;;;;;6148980;23;20017;-92
2024/01/21 11:19:36;;;;;;;10.30;5.20;;;2.80;99.90;;;;;;6149027;23;20015;-93
2024/01/21 11:22:04;;;;;;;8.55;4.70;;;3.70;99.90;;;;;;6149063;23;20097;-90
2024/01/21 11:24:31;;;;;;;10.98;4.95;;;4.30;99.90;;;;;;6148901;23;20460;-91
2024/01/21 11:26:58;;;;;;;9.55;4.35;;;3.90;99.90;;;;;;6149082;23;20013;-93
2024/01/21 11:29:33;;;;;;;7.65;4.20;;;4.10;99.90;;;;;;6149549;23;20037;-92
2024/01/21 11:32:01;;;;;;;10.38;4.88;;;3.60;99.90;;;;;;6148593;23;20115;-91
2024/01/21 11:34:39;;;;;;;10.77;5.43;;;3.10;99.90;;;;;;6148461;23;20017;-92
2024/01/21 11:37:06;;;;;;;9.93;4.20;;;2.90;99.90;;;;;;6148420;23;20445;-92
2024/01/21 11:39:33;;;;;;;8.82;5.05;;;4.10;99.90;;;;;;6147903;23;20021;-91
2024/01/21 11:42:01;;;;;;;10.00;4.53;;;4.10;99.90;;;;;;6148441;23;20016;-91
2024/01/21 11:44:32;;;;;;;9.50;5.38;;;4.30;99.90;;;;;;6148472;23;20018;-92
2024/01/21 11:47:01;;;;;;;11.73;5.25;;;2.90;99.90;;;;;;6148467;23;20017;-92
2024/01/21 11:49:32;;;;;;;11.10;5.20;;;3.90;99.90;;;;;;6148514;23;20018;-92
2024/01/21 11:52:01;;;;;;;10.50;4.65;;;4.40;99.90;;;;;;6148258;23;20051;-91
2024/01/21 11:54:30;;;;;;;10.23;5.20;;;4.30;99.90;;;;;;6147813;23;20072;-92
2024/01/21 11:56:58;;;;;;;9.40;4.32;;;4.20;99.90;;;;;;6148414;23;20468;-91
2024/01/21 11:59:25;;;;;;;9.30;4.78;;;3.00;99.90;;;;;;6147969;23;20063;-91
2024/01/21 12:01:58;;;;;;;7.68;4.07;;;3.00;99.90;;;;;;6148555;23;20450;-91
2024/01/21 12:04:25;;;;;;;10.63;4.93;;;3.00;99.90;;;;;;6149092;23;20014;-91
2024/01/21 12:06:52;;;;;;;9.60;4.65;;;4.10;99.90;;;;;;6148484;23;20093;-92
2024/01/21 12:09:21;;;;;;;8.90;4.35;;;3.90;99.90;;;;;;6148476;23;20016;-92
2024/01/21 12:11:49;;;;;;;10.82;5.15;;;4.20;99.90;;;;;;6148618;23;20479;-94
2024/01/21 12:14:16;;;;;;;10.02;4.88;;;3.60;99.90;;;;;;6144218;23;20014;-92
2024/01/21 12:16:43;;;;;;;9.45;4.28;;;3.70;99.90;;;;;;6143696;23;20024;-92
2024/01/21 12:19:11;;;;;;;9.48;4.40;;;3.10;99.90;;;;;;6143625;23;20370;-93
2024/01/21 12:21:37;;;;;;;8.57;4.53;;;4.50;99.90;;;;;;6143116;23;20455;-85
2024/01/21 12:24:04;;;;;;;9.85;4.90;;;4.40;99.90;;;;;;6142727;23;20059;-91
2024/01/21 12:26:31;;;;;;;10.50;5.10;;;3.10;99.90;;;;;;6143475;23;20078;-92
2024/01/21 12:29:10;;;;;;;10.00;5.22;;;3.10;99.90;;;;;;6143498;23;20065;-91
2024/01/21 12:31:38;;;;;;;10.18;4.90;;;3.10;99.90;;;;;;6143626;23;20380;-92
2024/01/21 12:34:05;;;;;;;10.02;4.40;;;3.00;99.90;;;;;;6167767;23;20013;-92
2024/01/21 12:36:33;;;;;;;13.15;5.10;;;3.00;99.90;;;;;;6143514;23;20022;-91
2024/01/21 12:39:00;;;;;;;11.00;5.05;;;3.00;99.90;;;;;;6143741;23;20033;-92
2024/01/21 12:41:27;;;;;;;9.00;4.35;;;3.50;99.90;;;;;;6143960;23;20018;-92
2024/01/21 12:43:54;;;;;;;12.18;5.53;;;2.90;99.90;;;;;;6145104;23;20010;-92
2024/01/21 12:46:21;;;;;;;11.30;4.90;;;2.90;99.90;;;;;;6145380;23;20061;-91
2024/01/21 12:48:48;;;;;;;10.07;5.13;;;3.60;99.90;;;;;;6145182;23;20047;-91
2024/01/21 12:51:17;;;;;;;12.40;6.13;;;2.90;99.90;;;;;;6145130;23;20495;-91
2024/01/21 12:53:51;;;;;;;9.43;5.75;;;2.90;99.90;;;;;;6145227;23;20100;-92
2024/01/21 12:56:19;;;;;;;11.50;5.53;;;2.90;99.90;;;;;;6145352;23;20093;-92